sensor_id;sensor_type;location;lat;lon;timestamp;temperature;humidity
12049;DHT22;6085;49.452;8.502;2023-01-01T00:00:43;13.20;99.90
12049;DHT22;6085;49.452;8.502;2023-01-01T00:04:45;13.10;99.90
12049;DHT22;6085;49.452;8.502;2023-01-01T00:08:49;13.00;99.90
12049;DHT22;6085;49.452;8.502;2023-01-01T00:13:12;13.00;99.90
12049;DHT22;6085;49.452;8.502;2023-01-01T00:17:16;13.10;99.90
12049;DHT22;6085;49.452;8.502;2023-01-01T00:21:17;13.10;99.90
12049;DHT22;6085;49.452;8.502;2023-01-01T00:25:19;13.20;99.90
12049;DHT22;6085;49.452;8.502;2023-01-01T00:29:21;13.20;99.90
12049;DHT22;6085;49.452;8.502;2023-01-01T00:33:24;13.30;99.90
12049;DHT22;6085;49.452;8.502;2023-01-01T00:37:26;13.30;99.90
12049;DHT22;6085;49.452;8.502;2023-01-01T00:41:28;13.30;99.90
12049;DHT22;6085;49.452;8.502;2023-01-01T00:45:30;13.10;99.90
12049;DHT22;6085;49.452;8.502;2023-01-01T00:49:33;13.10;99.90
12049;DHT22;6085;49.452;8.502;2023-01-01T00:53:35;13.10;99.90
12049;DHT22;6085;49.452;8.502;2023-01-01T00:57:37;13.10;99.90
12049;DHT22;6085;49.452;8.502;2023-01-01T01:01:39;13.30;99.90
12049;DHT22;6085;49.452;8.502;2023-01-01T01:05:42;13.30;99.90
12049;DHT22;6085;49.452;8.502;2023-01-01T01:09:44;13.40;99.90
12049;DHT22;6085;49.452;8.502;2023-01-01T01:13:47;13.40;99.90
12049;DHT22;6085;49.452;8.502;2023-01-01T01:17:49;13.50;99.90
12049;DHT22;6085;49.452;8.502;2023-01-01T01:21:53;13.50;99.90
12049;DHT22;6085;49.452;8.502;2023-01-01T01:26:04;13.60;99.90
12049;DHT22;6085;49.452;8.502;2023-01-01T01:30:07;13.60;99.90
12049;DHT22;6085;49.452;8.502;2023-01-01T01:34:09;13.60;99.90
12049;DHT22;6085;49.452;8.502;2023-01-01T01:38:12;13.50;99.90
12049;DHT22;6085;49.452;8.502;2023-01-01T01:42:16;13.40;99.90
12049;DHT22;6085;49.452;8.502;2023-01-01T01:46:22;13.50;99.90
12049;DHT22;6085;49.452;8.502;2023-01-01T01:50:28;13.50;99.90
12049;DHT22;6085;49.452;8.502;2023-01-01T01:54:32;13.50;99.90
12049;DHT22;6085;49.452;8.502;2023-01-01T01:58:34;13.50;99.90
12049;DHT22;6085;49.452;8.502;2023-01-01T02:02:39;13.40;99.90
12049;DHT22;6085;49.452;8.502;2023-01-01T02:06:43;13.40;99.90
12049;DHT22;6085;49.452;8.502;2023-01-01T02:10:47;13.40;99.90
12049;DHT22;6085;49.452;8.502;2023-01-01T02:14:49;13.40;99.90
12049;DHT22;6085;49.452;8.502;2023-01-01T02:18:56;13.50;99.90
12049;DHT22;6085;49.452;8.502;2023-01-01T02:27:50;13.70;99.90
12049;DHT22;6085;49.452;8.502;2023-01-01T02:31:57;13.60;99.90
12049;DHT22;6085;49.452;8.502;2023-01-01T02:36:02;13.50;99.90
12049;DHT22;6085;49.452;8.502;2023-01-01T02:40:05;13.50;99.90
12049;DHT22;6085;49.452;8.502;2023-01-01T02:44:07;13.50;99.90
12049;DHT22;6085;49.452;8.502;2023-01-01T02:48:38;13.50;99.90
12049;DHT22;6085;49.452;8.502;2023-01-01T02:57:18;13.70;99.90
12049;DHT22;6085;49.452;8.502;2023-01-01T03:01:28;13.60;99.90
12049;DHT22;6085;49.452;8.502;2023-01-01T03:05:40;13.40;99.90
12049;DHT22;6085;49.452;8.502;2023-01-01T03:10:02;13.30;99.90
12049;DHT22;6085;49.452;8.502;2023-01-01T03:14:11;13.30;99.90
12049;DHT22;6085;49.452;8.502;2023-01-01T03:18:17;13.40;99.90
12049;DHT22;6085;49.452;8.502;2023-01-01T03:22:26;13.50;99.90
12049;DHT22;6085;49.452;8.502;2023-01-01T03:26:28;13.40;99.90
12049;DHT22;6085;49.452;8.502;2023-01-01T03:30:36;13.40;99.90
12049;DHT22;6085;49.452;8.502;2023-01-01T03:34:42;13.40;99.90
12049;DHT22;6085;49.452;8.502;2023-01-01T03:38:49;13.30;99.90
12049;DHT22;6085;49.452;8.502;2023-01-01T03:42:55;13.30;99.90
12049;DHT22;6085;49.452;8.502;2023-01-01T03:47:00;13.40;99.90
12049;DHT22;6085;49.452;8.502;2023-01-01T03:51:09;13.30;99.90
12049;DHT22;6085;49.452;8.502;2023-01-01T03:55:19;13.20;99.90
12049;DHT22;6085;49.452;8.502;2023-01-01T03:59:25;13.10;99.90
12049;DHT22;6085;49.452;8.502;2023-01-01T04:03:29;13.00;99.90
12049;DHT22;6085;49.452;8.502;2023-01-01T04:07:31;13.00;99.90
12049;DHT22;6085;49.452;8.502;2023-01-01T04:11:36;13.20;99.90
12049;DHT22;6085;49.452;8.502;2023-01-01T04:15:58;13.20;99.90
12049;DHT22;6085;49.452;8.502;2023-01-01T04:19:59;13.10;99.90
12049;DHT22;6085;49.452;8.502;2023-01-01T04:24:01;13.10;99.90
12049;DHT22;6085;49.452;8.502;2023-01-01T04:28:04;13.10;99.90
12049;DHT22;6085;49.452;8.502;2023-01-01T04:32:06;13.10;99.90
12049;DHT22;6085;49.452;8.502;2023-01-01T04:36:09;13.10;99.90
12049;DHT22;6085;49.452;8.502;2023-01-01T04:40:12;13.10;99.90
12049;DHT22;6085;49.452;8.502;2023-01-01T04:44:15;13.00;99.90
12049;DHT22;6085;49.452;8.502;2023-01-01T04:48:17;13.10;99.90
12049;DHT22;6085;49.452;8.502;2023-01-01T04:52:19;13.10;99.90
12049;DHT22;6085;49.452;8.502;2023-01-01T04:56:21;13.10;99.90
12049;DHT22;6085;49.452;8.502;2023-01-01T05:00:24;13.00;99.90
12049;DHT22;6085;49.452;8.502;2023-01-01T05:04:26;12.80;99.90
12049;DHT22;6085;49.452;8.502;2023-01-01T05:08:28;12.70;99.90
12049;DHT22;6085;49.452;8.502;2023-01-01T05:12:30;12.60;99.90
12049;DHT22;6085;49.452;8.502;2023-01-01T05:16:35;12.70;99.90
12049;DHT22;6085;49.452;8.502;2023-01-01T05:20:37;12.60;99.90
12049;DHT22;6085;49.452;8.502;2023-01-01T05:24:38;12.60;99.90
12049;DHT22;6085;49.452;8.502;2023-01-01T05:28:41;12.50;99.90
12049;DHT22;6085;49.452;8.502;2023-01-01T05:32:44;12.60;99.90
12049;DHT22;6085;49.452;8.502;2023-01-01T05:36:46;12.50;99.90
12049;DHT22;6085;49.452;8.502;2023-01-01T05:40:47;12.60;99.90
12049;DHT22;6085;49.452;8.502;2023-01-01T05:44:49;12.60;99.90
12049;DHT22;6085;49.452;8.502;2023-01-01T05:48:53;12.50;99.90
12049;DHT22;6085;49.452;8.502;2023-01-01T05:52:55;12.50;99.90
12049;DHT22;6085;49.452;8.502;2023-01-01T05:56:57;12.40;99.90
12049;DHT22;6085;49.452;8.502;2023-01-01T06:01:05;12.30;99.90
12049;DHT22;6085;49.452;8.502;2023-01-01T06:05:09;12.20;99.90
12049;DHT22;6085;49.452;8.502;2023-01-01T06:09:10;12.20;99.90
12049;DHT22;6085;49.452;8.502;2023-01-01T06:13:12;12.10;99.90
12049;DHT22;6085;49.452;8.502;2023-01-01T06:17:14;12.10;99.90
12049;DHT22;6085;49.452;8.502;2023-01-01T06:21:19;12.10;99.90
12049;DHT22;6085;49.452;8.502;2023-01-01T06:25:21;12.10;99.90
12049;DHT22;6085;49.452;8.502;2023-01-01T06:29:22;12.10;99.90
12049;DHT22;6085;49.452;8.502;2023-01-01T06:33:24;12.10;99.90
12049;DHT22;6085;49.452;8.502;2023-01-01T06:37:28;12.10;99.90
12049;DHT22;6085;49.452;8.502;2023-01-01T06:41:29;12.30;99.90
12049;DHT22;6085;49.452;8.502;2023-01-01T06:45:31;12.30;99.90
12049;DHT22;6085;49.452;8.502;2023-01-01T06:49:33;12.40;99.90
12049;DHT22;6085;49.452;8.502;2023-01-01T06:53:36;12.40;99.90
12049;DHT22;6085;49.452;8.502;2023-01-01T06:57:38;12.10;99.90
12049;DHT22;6085;49.452;8.502;2023-01-01T07:01:40;12.00;99.90
12049;DHT22;6085;49.452;8.502;2023-01-01T07:05:42;12.00;99.90
12049;DHT22;6085;49.452;8.502;2023-01-01T07:09:45;12.00;99.90
12049;DHT22;6085;49.452;8.502;2023-01-01T07:13:47;12.10;99.90
12049;DHT22;6085;49.452;8.502;2023-01-01T07:17:48;12.00;99.90
12049;DHT22;6085;49.452;8.502;2023-01-01T07:21:51;11.80;99.90
12049;DHT22;6085;49.452;8.502;2023-01-01T07:25:55;11.60;99.90
12049;DHT22;6085;49.452;8.502;2023-01-01T07:29:57;11.50;99.90
12049;DHT22;6085;49.452;8.502;2023-01-01T07:33:59;11.50;99.90
12049;DHT22;6085;49.452;8.502;2023-01-01T07:38:00;11.60;99.90
12049;DHT22;6085;49.452;8.502;2023-01-01T07:42:04;11.70;99.90
12049;DHT22;6085;49.452;8.502;2023-01-01T07:46:05;11.70;99.90
12049;DHT22;6085;49.452;8.502;2023-01-01T07:50:14;11.70;99.90
12049;DHT22;6085;49.452;8.502;2023-01-01T07:54:16;11.60;99.90
12049;DHT22;6085;49.452;8.502;2023-01-01T07:58:20;11.70;99.90
12049;DHT22;6085;49.452;8.502;2023-01-01T08:02:22;11.70;99.90
12049;DHT22;6085;49.452;8.502;2023-01-01T08:06:24;11.70;99.90
12049;DHT22;6085;49.452;8.502;2023-01-01T08:10:26;11.90;99.90
12049;DHT22;6085;49.452;8.502;2023-01-01T08:14:29;12.10;99.90
12049;DHT22;6085;49.452;8.502;2023-01-01T08:18:30;12.20;99.90
12049;DHT22;6085;49.452;8.502;2023-01-01T08:22:32;12.40;99.90
12049;DHT22;6085;49.452;8.502;2023-01-01T08:26:35;12.60;99.90
12049;DHT22;6085;49.452;8.502;2023-01-01T08:30:40;12.70;99.90
12049;DHT22;6085;49.452;8.502;2023-01-01T08:34:42;13.00;99.90
12049;DHT22;6085;49.452;8.502;2023-01-01T08:38:44;13.20;99.90
12049;DHT22;6085;49.452;8.502;2023-01-01T08:42:45;13.40;99.90
12049;DHT22;6085;49.452;8.502;2023-01-01T08:46:51;13.60;99.90
12049;DHT22;6085;49.452;8.502;2023-01-01T08:50:53;14.10;99.90
12049;DHT22;6085;49.452;8.502;2023-01-01T08:54:55;15.10;99.90
12049;DHT22;6085;49.452;8.502;2023-01-01T08:58:57;15.70;99.90
12049;DHT22;6085;49.452;8.502;2023-01-01T09:03:00;16.10;99.90
12049;DHT22;6085;49.452;8.502;2023-01-01T09:07:02;16.60;99.90
12049;DHT22;6085;49.452;8.502;2023-01-01T09:11:04;17.30;99.90
12049;DHT22;6085;49.452;8.502;2023-01-01T09:15:08;17.60;99.90
12049;DHT22;6085;49.452;8.502;2023-01-01T09:19:14;17.60;99.90
12049;DHT22;6085;49.452;8.502;2023-01-01T09:23:16;17.40;99.90
12049;DHT22;6085;49.452;8.502;2023-01-01T09:27:17;17.20;99.90
12049;DHT22;6085;49.452;8.502;2023-01-01T09:31:19;17.30;99.90
12049;DHT22;6085;49.452;8.502;2023-01-01T09:35:22;16.90;99.90
12049;DHT22;6085;49.452;8.502;2023-01-01T09:39:24;16.60;99.90
12049;DHT22;6085;49.452;8.502;2023-01-01T09:43:32;16.40;99.90
12049;DHT22;6085;49.452;8.502;2023-01-01T09:47:41;16.30;99.90
12049;DHT22;6085;49.452;8.502;2023-01-01T09:51:49;16.30;99.90
12049;DHT22;6085;49.452;8.502;2023-01-01T09:55:55;16.40;99.90
12049;DHT22;6085;49.452;8.502;2023-01-01T09:59:57;16.50;99.90
12049;DHT22;6085;49.452;8.502;2023-01-01T10:04:12;16.60;99.90
12049;DHT22;6085;49.452;8.502;2023-01-01T10:08:29;16.60;99.90
12049;DHT22;6085;49.452;8.502;2023-01-01T10:12:37;16.80;99.90
12049;DHT22;6085;49.452;8.502;2023-01-01T10:16:45;16.90;99.90
12049;DHT22;6085;49.452;8.502;2023-01-01T10:20:57;17.10;99.90
12049;DHT22;6085;49.452;8.502;2023-01-01T10:25:05;17.30;99.90
12049;DHT22;6085;49.452;8.502;2023-01-01T10:29:14;17.40;99.90
12049;DHT22;6085;49.452;8.502;2023-01-01T10:33:17;17.40;99.90
12049;DHT22;6085;49.452;8.502;2023-01-01T10:37:19;17.40;99.90
12049;DHT22;6085;49.452;8.502;2023-01-01T10:41:23;17.30;99.90
12049;DHT22;6085;49.452;8.502;2023-01-01T10:45:29;17.50;99.90
12049;DHT22;6085;49.452;8.502;2023-01-01T10:49:32;17.80;99.90
12049;DHT22;6085;49.452;8.502;2023-01-01T10:53:35;17.80;99.90
12049;DHT22;6085;49.452;8.502;2023-01-01T10:57:39;17.80;99.90
12049;DHT22;6085;49.452;8.502;2023-01-01T11:01:41;17.90;99.90
12049;DHT22;6085;49.452;8.502;2023-01-01T11:06:09;18.10;99.90
12049;DHT22;6085;49.452;8.502;2023-01-01T11:10:16;18.50;99.90
12049;DHT22;6085;49.452;8.502;2023-01-01T11:14:23;18.50;99.90
12049;DHT22;6085;49.452;8.502;2023-01-01T11:18:27;18.00;99.90
12049;DHT22;6085;49.452;8.502;2023-01-01T11:22:37;17.40;99.90
12049;DHT22;6085;49.452;8.502;2023-01-01T11:26:40;17.00;99.90
12049;DHT22;6085;49.452;8.502;2023-01-01T11:30:57;16.70;99.90
12049;DHT22;6085;49.452;8.502;2023-01-01T11:35:02;16.40;99.90
12049;DHT22;6085;49.452;8.502;2023-01-01T11:39:17;16.30;99.90
12049;DHT22;6085;49.452;8.502;2023-01-01T11:43:22;16.10;99.90
12049;DHT22;6085;49.452;8.502;2023-01-01T11:47:28;16.00;99.90
12049;DHT22;6085;49.452;8.502;2023-01-01T11:51:32;16.00;99.90
12049;DHT22;6085;49.452;8.502;2023-01-01T11:55:37;16.00;99.90
12049;DHT22;6085;49.452;8.502;2023-01-01T11:59:45;15.90;99.90
12049;DHT22;6085;49.452;8.502;2023-01-01T12:03:53;15.90;99.90
12049;DHT22;6085;49.452;8.502;2023-01-01T12:07:57;16.00;99.90
12049;DHT22;6085;49.452;8.502;2023-01-01T12:12:07;16.10;99.90
12049;DHT22;6085;49.452;8.502;2023-01-01T12:16:13;16.20;99.90
12049;DHT22;6085;49.452;8.502;2023-01-01T12:20:23;16.30;99.90
12049;DHT22;6085;49.452;8.502;2023-01-01T12:24:31;16.40;99.90
12049;DHT22;6085;49.452;8.502;2023-01-01T12:28:39;16.40;99.90
12049;DHT22;6085;49.452;8.502;2023-01-01T12:33:02;16.30;99.90
12049;DHT22;6085;49.452;8.502;2023-01-01T12:37:14;16.20;99.90
12049;DHT22;6085;49.452;8.502;2023-01-01T12:41:26;16.20;99.90
12049;DHT22;6085;49.452;8.502;2023-01-01T12:50:20;16.10;99.90
12049;DHT22;6085;49.452;8.502;2023-01-01T12:54:56;16.00;99.90
12049;DHT22;6085;49.452;8.502;2023-01-01T12:59:08;16.00;99.90
12049;DHT22;6085;49.452;8.502;2023-01-01T13:03:16;16.00;99.90
12049;DHT22;6085;49.452;8.502;2023-01-01T13:07:25;16.10;99.90
12049;DHT22;6085;49.452;8.502;2023-01-01T13:11:30;16.10;99.90
12049;DHT22;6085;49.452;8.502;2023-01-01T13:15:47;16.10;99.90
12049;DHT22;6085;49.452;8.502;2023-01-01T13:19:55;16.10;99.90
12049;DHT22;6085;49.452;8.502;2023-01-01T13:24:02;16.10;99.90
12049;DHT22;6085;49.452;8.502;2023-01-01T13:28:11;16.10;99.90
12049;DHT22;6085;49.452;8.502;2023-01-01T13:32:14;16.00;99.90
12049;DHT22;6085;49.452;8.502;2023-01-01T13:36:31;15.90;99.90
12049;DHT22;6085;49.452;8.502;2023-01-01T13:40:51;15.90;99.90
12049;DHT22;6085;49.452;8.502;2023-01-01T13:44:57;15.80;99.90
12049;DHT22;6085;49.452;8.502;2023-01-01T13:49:14;15.70;99.90
12049;DHT22;6085;49.452;8.502;2023-01-01T13:53:43;15.60;99.90
12049;DHT22;6085;49.452;8.502;2023-01-01T14:02:32;15.60;99.90
12049;DHT22;6085;49.452;8.502;2023-01-01T14:06:38;15.50;99.90
12049;DHT22;6085;49.452;8.502;2023-01-01T14:10:48;15.40;99.90
12049;DHT22;6085;49.452;8.502;2023-01-01T14:14:50;15.40;99.90
12049;DHT22;6085;49.452;8.502;2023-01-01T14:18:55;15.30;99.90
12049;DHT22;6085;49.452;8.502;2023-01-01T14:23:03;15.20;99.90
12049;DHT22;6085;49.452;8.502;2023-01-01T14:27:06;15.10;99.90
12049;DHT22;6085;49.452;8.502;2023-01-01T14:31:10;15.00;99.90
12049;DHT22;6085;49.452;8.502;2023-01-01T14:35:15;15.00;99.90
12049;DHT22;6085;49.452;8.502;2023-01-01T14:39:25;14.90;99.90
12049;DHT22;6085;49.452;8.502;2023-01-01T14:43:27;14.80;99.90
12049;DHT22;6085;49.452;8.502;2023-01-01T14:47:32;14.70;99.90
12049;DHT22;6085;49.452;8.502;2023-01-01T14:51:41;14.70;99.90
12049;DHT22;6085;49.452;8.502;2023-01-01T14:55:46;14.70;99.90
12049;DHT22;6085;49.452;8.502;2023-01-01T14:59:50;14.70;99.90
12049;DHT22;6085;49.452;8.502;2023-01-01T15:03:55;14.60;99.90
12049;DHT22;6085;49.452;8.502;2023-01-01T15:07:59;14.70;99.90
12049;DHT22;6085;49.452;8.502;2023-01-01T15:12:02;14.70;99.90
12049;DHT22;6085;49.452;8.502;2023-01-01T15:16:15;14.70;99.90
12049;DHT22;6085;49.452;8.502;2023-01-01T15:20:19;14.70;99.90
12049;DHT22;6085;49.452;8.502;2023-01-01T15:24:23;14.60;99.90
12049;DHT22;6085;49.452;8.502;2023-01-01T15:28:26;14.60;99.90
12049;DHT22;6085;49.452;8.502;2023-01-01T15:32:31;14.60;99.90
12049;DHT22;6085;49.452;8.502;2023-01-01T15:36:33;14.50;99.90
12049;DHT22;6085;49.452;8.502;2023-01-01T15:40:37;14.40;99.90
12049;DHT22;6085;49.452;8.502;2023-01-01T15:44:42;14.40;99.90
12049;DHT22;6085;49.452;8.502;2023-01-01T15:48:47;14.40;99.90
12049;DHT22;6085;49.452;8.502;2023-01-01T15:52:51;14.30;99.90
12049;DHT22;6085;49.452;8.502;2023-01-01T15:56:55;14.20;99.90
12049;DHT22;6085;49.452;8.502;2023-01-01T16:01:00;14.10;99.90
12049;DHT22;6085;49.452;8.502;2023-01-01T16:05:11;13.90;99.90
12049;DHT22;6085;49.452;8.502;2023-01-01T16:09:15;13.90;99.90
12049;DHT22;6085;49.452;8.502;2023-01-01T16:13:18;13.80;99.90
12049;DHT22;6085;49.452;8.502;2023-01-01T16:17:20;13.80;99.90
12049;DHT22;6085;49.452;8.502;2023-01-01T16:21:24;13.70;99.90
12049;DHT22;6085;49.452;8.502;2023-01-01T16:25:26;13.60;99.90
12049;DHT22;6085;49.452;8.502;2023-01-01T16:29:29;13.60;99.90
12049;DHT22;6085;49.452;8.502;2023-01-01T16:33:31;13.60;99.90
12049;DHT22;6085;49.452;8.502;2023-01-01T16:37:34;13.70;99.90
12049;DHT22;6085;49.452;8.502;2023-01-01T16:41:39;13.80;99.90
12049;DHT22;6085;49.452;8.502;2023-01-01T16:45:43;13.70;99.90
12049;DHT22;6085;49.452;8.502;2023-01-01T16:49:45;13.50;99.90
12049;DHT22;6085;49.452;8.502;2023-01-01T16:53:46;13.50;99.90
12049;DHT22;6085;49.452;8.502;2023-01-01T16:57:48;13.50;99.90
12049;DHT22;6085;49.452;8.502;2023-01-01T17:01:51;13.60;99.90
12049;DHT22;6085;49.452;8.502;2023-01-01T17:05:53;13.60;99.90
12049;DHT22;6085;49.452;8.502;2023-01-01T17:09:55;13.60;99.90
12049;DHT22;6085;49.452;8.502;2023-01-01T17:13:57;13.50;99.90
12049;DHT22;6085;49.452;8.502;2023-01-01T17:18:00;13.30;99.90
12049;DHT22;6085;49.452;8.502;2023-01-01T17:22:02;13.00;99.90
12049;DHT22;6085;49.452;8.502;2023-01-01T17:26:06;12.70;99.90
12049;DHT22;6085;49.452;8.502;2023-01-01T17:30:09;12.30;99.90
12049;DHT22;6085;49.452;8.502;2023-01-01T17:34:13;12.10;99.90
12049;DHT22;6085;49.452;8.502;2023-01-01T17:38:15;12.10;99.90
12049;DHT22;6085;49.452;8.502;2023-01-01T17:42:17;12.00;99.90
12049;DHT22;6085;49.452;8.502;2023-01-01T17:46:21;12.20;99.90
12049;DHT22;6085;49.452;8.502;2023-01-01T17:50:24;12.60;99.90
12049;DHT22;6085;49.452;8.502;2023-01-01T17:54:27;12.80;99.90
12049;DHT22;6085;49.452;8.502;2023-01-01T17:58:30;12.90;99.90
12049;DHT22;6085;49.452;8.502;2023-01-01T18:02:32;12.90;99.90
12049;DHT22;6085;49.452;8.502;2023-01-01T18:06:38;13.00;99.90
12049;DHT22;6085;49.452;8.502;2023-01-01T18:10:40;13.30;99.90
12049;DHT22;6085;49.452;8.502;2023-01-01T18:14:42;13.40;99.90
12049;DHT22;6085;49.452;8.502;2023-01-01T18:18:43;13.40;99.90
12049;DHT22;6085;49.452;8.502;2023-01-01T18:22:47;13.60;99.90
12049;DHT22;6085;49.452;8.502;2023-01-01T18:26:48;13.70;99.90
12049;DHT22;6085;49.452;8.502;2023-01-01T18:30:50;13.70;99.90
12049;DHT22;6085;49.452;8.502;2023-01-01T18:34:52;13.70;99.90
12049;DHT22;6085;49.452;8.502;2023-01-01T18:38:57;13.70;99.90
12049;DHT22;6085;49.452;8.502;2023-01-01T18:43:02;13.70;99.90
12049;DHT22;6085;49.452;8.502;2023-01-01T18:47:11;13.70;99.90
12049;DHT22;6085;49.452;8.502;2023-01-01T18:51:22;13.60;99.90
12049;DHT22;6085;49.452;8.502;2023-01-01T18:55:25;13.70;99.90
12049;DHT22;6085;49.452;8.502;2023-01-01T18:59:27;13.80;99.90
12049;DHT22;6085;49.452;8.502;2023-01-01T19:03:29;13.90;99.90
12049;DHT22;6085;49.452;8.502;2023-01-01T19:07:31;13.90;99.90
12049;DHT22;6085;49.452;8.502;2023-01-01T19:11:36;13.90;99.90
12049;DHT22;6085;49.452;8.502;2023-01-01T19:15:38;13.60;99.90
12049;DHT22;6085;49.452;8.502;2023-01-01T19:19:40;13.40;99.90
12049;DHT22;6085;49.452;8.502;2023-01-01T19:23:48;13.20;99.90
12049;DHT22;6085;49.452;8.502;2023-01-01T19:27:51;13.00;99.90
12049;DHT22;6085;49.452;8.502;2023-01-01T19:31:55;12.90;99.90
12049;DHT22;6085;49.452;8.502;2023-01-01T19:35:57;12.70;99.90
12049;DHT22;6085;49.452;8.502;2023-01-01T19:39:59;12.50;99.90
12049;DHT22;6085;49.452;8.502;2023-01-01T19:44:02;12.40;99.90
12049;DHT22;6085;49.452;8.502;2023-01-01T19:48:05;12.50;99.90
12049;DHT22;6085;49.452;8.502;2023-01-01T19:52:07;12.60;99.90
12049;DHT22;6085;49.452;8.502;2023-01-01T19:56:09;12.80;99.90
12049;DHT22;6085;49.452;8.502;2023-01-01T20:00:13;12.90;99.90
12049;DHT22;6085;49.452;8.502;2023-01-01T20:04:15;13.00;99.90
12049;DHT22;6085;49.452;8.502;2023-01-01T20:08:17;13.20;99.90
12049;DHT22;6085;49.452;8.502;2023-01-01T20:12:18;13.20;99.90
12049;DHT22;6085;49.452;8.502;2023-01-01T20:16:22;13.20;99.90
12049;DHT22;6085;49.452;8.502;2023-01-01T20:20:23;13.30;99.90
12049;DHT22;6085;49.452;8.502;2023-01-01T20:24:25;13.30;99.90
12049;DHT22;6085;49.452;8.502;2023-01-01T20:28:27;13.10;99.90
12049;DHT22;6085;49.452;8.502;2023-01-01T20:32:47;13.00;99.90
12049;DHT22;6085;49.452;8.502;2023-01-01T20:36:50;12.80;99.90
12049;DHT22;6085;49.452;8.502;2023-01-01T20:41:09;12.70;99.90
12049;DHT22;6085;49.452;8.502;2023-01-01T20:45:26;12.90;99.90
12049;DHT22;6085;49.452;8.502;2023-01-01T20:49:30;12.90;99.90
12049;DHT22;6085;49.452;8.502;2023-01-01T20:53:31;12.80;99.90
12049;DHT22;6085;49.452;8.502;2023-01-01T20:57:33;12.70;99.90
12049;DHT22;6085;49.452;8.502;2023-01-01T21:01:35;12.60;99.90
12049;DHT22;6085;49.452;8.502;2023-01-01T21:05:38;12.60;99.90
12049;DHT22;6085;49.452;8.502;2023-01-01T21:09:40;12.60;99.90
12049;DHT22;6085;49.452;8.502;2023-01-01T21:13:42;12.60;99.90
12049;DHT22;6085;49.452;8.502;2023-01-01T21:17:44;12.60;99.90
12049;DHT22;6085;49.452;8.502;2023-01-01T21:21:49;12.60;99.90
12049;DHT22;6085;49.452;8.502;2023-01-01T21:25:51;12.60;99.90
12049;DHT22;6085;49.452;8.502;2023-01-01T21:29:55;12.50;99.90
12049;DHT22;6085;49.452;8.502;2023-01-01T21:33:58;12.30;99.90
12049;DHT22;6085;49.452;8.502;2023-01-01T21:38:02;12.30;99.90
12049;DHT22;6085;49.452;8.502;2023-01-01T21:42:21;12.40;99.90
12049;DHT22;6085;49.452;8.502;2023-01-01T21:46:31;12.30;99.90
12049;DHT22;6085;49.452;8.502;2023-01-01T21:50:39;12.30;99.90
12049;DHT22;6085;49.452;8.502;2023-01-01T21:54:42;12.30;99.90
12049;DHT22;6085;49.452;8.502;2023-01-01T21:58:47;12.40;99.90
12049;DHT22;6085;49.452;8.502;2023-01-01T22:03:12;12.50;99.90
12049;DHT22;6085;49.452;8.502;2023-01-01T22:07:18;12.60;99.90
12049;DHT22;6085;49.452;8.502;2023-01-01T22:11:27;12.70;99.90
12049;DHT22;6085;49.452;8.502;2023-01-01T22:15:35;12.70;99.90
12049;DHT22;6085;49.452;8.502;2023-01-01T22:19:38;12.80;99.90
12049;DHT22;6085;49.452;8.502;2023-01-01T22:23:41;12.80;99.90
12049;DHT22;6085;49.452;8.502;2023-01-01T22:27:45;12.80;99.90
12049;DHT22;6085;49.452;8.502;2023-01-01T22:31:47;12.80;99.90
12049;DHT22;6085;49.452;8.502;2023-01-01T22:35:52;12.80;99.90
12049;DHT22;6085;49.452;8.502;2023-01-01T22:39:54;12.70;99.90
12049;DHT22;6085;49.452;8.502;2023-01-01T22:44:00;12.70;99.90
12049;DHT22;6085;49.452;8.502;2023-01-01T22:48:05;12.60;99.90
12049;DHT22;6085;49.452;8.502;2023-01-01T22:52:08;12.60;99.90
12049;DHT22;6085;49.452;8.502;2023-01-01T22:56:10;12.60;99.90
12049;DHT22;6085;49.452;8.502;2023-01-01T23:00:16;12.60;99.90
12049;DHT22;6085;49.452;8.502;2023-01-01T23:04:18;12.60;99.90
12049;DHT22;6085;49.452;8.502;2023-01-01T23:08:20;12.80;99.90
12049;DHT22;6085;49.452;8.502;2023-01-01T23:12:22;12.90;99.90
12049;DHT22;6085;49.452;8.502;2023-01-01T23:16:25;12.90;99.90
12049;DHT22;6085;49.452;8.502;2023-01-01T23:20:26;12.90;99.90
12049;DHT22;6085;49.452;8.502;2023-01-01T23:24:29;12.90;99.90
12049;DHT22;6085;49.452;8.502;2023-01-01T23:28:31;13.00;99.90
12049;DHT22;6085;49.452;8.502;2023-01-01T23:32:34;13.00;99.90
12049;DHT22;6085;49.452;8.502;2023-01-01T23:36:38;13.10;99.90
12049;DHT22;6085;49.452;8.502;2023-01-01T23:40:39;13.10;99.90
12049;DHT22;6085;49.452;8.502;2023-01-01T23:44:41;13.00;99.90
12049;DHT22;6085;49.452;8.502;2023-01-01T23:48:45;13.00;99.90
12049;DHT22;6085;49.452;8.502;2023-01-01T23:52:48;12.90;99.90
12049;DHT22;6085;49.452;8.502;2023-01-01T23:56:49;12.80;99.90
